createdAt,value
2024-04-10T00:05:00.623Z,13.96
2024-04-10T00:10:04.779Z,14.10
2024-04-10T00:15:07.998Z,14.36
2024-04-10T00:20:10.956Z,14.56
2024-04-10T00:25:14.304Z,14.73
2024-04-10T00:30:17.300Z,14.81
2024-04-10T00:35:21.191Z,14.89
2024-04-10T00:40:24.125Z,15.14
2024-04-10T00:45:27.260Z,15.42
2024-04-10T00:50:30.733Z,15.60
2024-04-10T00:55:34.674Z,15.70
2024-04-10T01:00:38.610Z,15.69
2024-04-10T01:05:41.701Z,15.62
2024-04-10T01:10:44.925Z,15.53
2024-04-10T01:15:48.281Z,15.45
2024-04-10T01:20:52.246Z,15.38
2024-04-10T01:25:55.400Z,15.31
2024-04-10T01:30:58.575Z,15.27
2024-04-10T01:36:01.708Z,15.21
2024-04-10T01:41:04.825Z,15.17
2024-04-10T01:46:08.197Z,15.13
2024-04-10T01:51:11.395Z,15.09
2024-04-10T01:56:14.589Z,15.05
2024-04-10T02:01:18.065Z,15.01
2024-04-10T02:06:21.221Z,14.92
2024-04-10T02:11:27.668Z,14.81
2024-04-10T02:16:31.291Z,14.74
2024-04-10T02:21:34.435Z,14.64
2024-04-10T02:26:37.568Z,14.55
2024-04-10T02:31:41.051Z,14.47
2024-04-10T02:36:44.181Z,14.39
2024-04-10T02:41:47.171Z,14.30
2024-04-10T02:46:50.901Z,14.17
2024-04-10T02:51:54.293Z,14.06
2024-04-10T02:56:57.201Z,13.95
2024-04-10T03:02:00.555Z,13.85
2024-04-10T03:07:04.738Z,13.77
2024-04-10T03:12:09.020Z,13.70
2024-04-10T03:17:13.488Z,13.61
2024-04-10T03:22:17.431Z,13.53
2024-04-10T03:27:20.754Z,13.46
2024-04-10T03:32:24.043Z,13.36
2024-04-10T03:37:27.774Z,13.25
2024-04-10T03:42:30.777Z,13.15
2024-04-10T03:47:33.926Z,13.07
2024-04-10T03:52:36.880Z,13.00
2024-04-10T03:57:39.741Z,12.92
2024-04-10T04:02:43.624Z,12.86
2024-04-10T04:07:46.612Z,12.83
2024-04-10T04:12:49.554Z,12.84
2024-04-10T04:17:52.870Z,12.85
2024-04-10T04:22:55.938Z,12.90
2024-04-10T04:27:58.831Z,12.96
2024-04-10T04:33:02.296Z,13.06
2024-04-10T04:38:05.775Z,13.18
2024-04-10T04:43:11.929Z,13.37
2024-04-10T04:48:15.125Z,13.62
2024-04-10T04:53:18.380Z,13.91
2024-04-10T04:58:24.435Z,14.28
2024-04-10T05:03:47.956Z,14.68
2024-04-10T05:08:51.228Z,15.09
2024-04-10T05:13:54.562Z,15.47
2024-04-10T05:18:59.480Z,15.86
2024-04-10T05:24:02.385Z,16.30
2024-04-10T05:29:05.519Z,16.82
2024-04-10T05:34:08.675Z,17.57
2024-04-10T05:39:20.340Z,18.44
2024-04-10T05:44:24.875Z,19.23
2024-04-10T05:49:29.787Z,19.98
2024-04-10T05:54:32.694Z,20.30
2024-04-10T05:59:35.859Z,20.68
2024-04-10T06:04:40.302Z,21.22
2024-04-10T06:09:43.545Z,21.71
2024-04-10T06:14:46.835Z,22.21
2024-04-10T06:19:50.441Z,22.48
2024-04-10T06:24:53.691Z,22.98
2024-04-10T06:29:56.785Z,23.02
2024-04-10T06:34:59.913Z,22.99
2024-04-10T06:40:03.233Z,22.99
2024-04-10T06:45:07.030Z,23.27
2024-04-10T06:50:14.204Z,23.55
2024-04-10T06:55:17.448Z,23.88
2024-04-10T07:00:23.651Z,24.40
2024-04-10T07:05:26.754Z,24.92
2024-04-10T07:10:30.140Z,25.65
2024-04-10T07:15:33.452Z,26.11
2024-04-10T07:20:36.677Z,25.17
2024-04-10T07:25:40.278Z,24.09
2024-04-10T07:30:51.414Z,23.37
2024-04-10T07:35:54.477Z,23.27
2024-04-10T07:40:57.945Z,24.78
2024-04-10T07:46:08.277Z,26.62
2024-04-10T07:51:14.551Z,28.28
2024-04-10T07:56:18.931Z,29.42
2024-04-10T08:01:23.955Z,30.63
2024-04-10T08:06:27.140Z,30.86
2024-04-10T08:11:30.333Z,29.41
2024-04-10T08:16:34.067Z,27.44
2024-04-10T08:21:38.925Z,25.77
2024-04-10T08:26:42.277Z,24.85
2024-04-10T08:31:46.406Z,24.33
2024-04-10T08:36:51.538Z,23.60
2024-04-10T08:41:57.064Z,22.65
2024-04-10T08:47:02.240Z,21.83
2024-04-10T08:52:05.464Z,21.58
2024-04-10T08:57:08.634Z,21.37
2024-04-10T09:02:13.920Z,21.36
2024-04-10T09:07:20.170Z,21.41
2024-04-10T09:12:24.505Z,21.37
2024-04-10T09:17:27.526Z,21.10
2024-04-10T09:22:30.722Z,20.68
2024-04-10T09:27:33.621Z,20.23
2024-04-10T09:32:37.928Z,19.85
2024-04-10T09:37:45.087Z,19.49
2024-04-10T09:42:52.573Z,19.15
2024-04-10T09:47:57.881Z,18.82
2024-04-10T09:53:03.282Z,18.50
2024-04-10T09:58:11.778Z,18.14
2024-04-10T10:03:27.525Z,17.81
2024-04-10T10:08:31.561Z,17.52
2024-04-10T10:13:42.953Z,17.27
2024-04-10T10:18:54.348Z,17.06
2024-04-10T10:24:08.390Z,16.85
2024-04-10T10:29:13.992Z,16.78
2024-04-10T10:34:27.468Z,16.86
2024-04-10T10:39:31.849Z,17.06
2024-04-10T10:44:35.107Z,17.25
2024-04-10T10:49:38.351Z,17.50
2024-04-10T10:54:41.580Z,18.05
2024-04-10T10:59:44.729Z,18.92
2024-04-10T11:04:48.036Z,19.90
2024-04-10T11:09:51.611Z,20.62
2024-04-10T11:14:54.668Z,21.06
2024-04-10T11:19:57.730Z,21.14
2024-04-10T11:25:01.949Z,20.92
2024-04-10T11:30:06.334Z,20.94
2024-04-10T11:35:14.856Z,21.05
2024-04-10T11:40:18.022Z,21.15
2024-04-10T11:45:21.035Z,21.20
2024-04-10T11:50:24.713Z,21.01
2024-04-10T11:55:29.737Z,20.78
2024-04-10T12:00:32.915Z,20.49
2024-04-10T12:05:39.046Z,20.15
2024-04-10T12:10:42.093Z,19.86
2024-04-10T12:15:45.049Z,19.74
2024-04-10T12:20:48.620Z,19.60
2024-04-10T12:25:51.814Z,19.53
2024-04-10T12:30:55.324Z,19.47
2024-04-10T12:36:19.836Z,19.51
2024-04-10T12:41:23.002Z,19.62
2024-04-10T12:46:29.095Z,20.02
2024-04-10T12:51:32.324Z,20.41
2024-04-10T12:56:36.704Z,20.62
2024-04-10T13:01:39.903Z,20.51
2024-04-10T13:06:43.380Z,20.35
2024-04-10T13:11:46.694Z,20.12
2024-04-10T13:16:49.766Z,19.83
2024-04-10T13:21:52.903Z,19.69
2024-04-10T13:26:56.211Z,19.67
2024-04-10T13:31:59.629Z,19.65
2024-04-10T13:37:03.042Z,19.54
2024-04-10T13:42:07.549Z,19.33
2024-04-10T13:47:10.892Z,19.03
2024-04-10T13:52:14.000Z,18.82
2024-04-10T13:57:19.187Z,18.87
2024-04-10T14:02:23.072Z,19.10
2024-04-10T14:07:26.087Z,19.38
2024-04-10T14:12:29.481Z,19.53
2024-04-10T14:17:33.272Z,19.52
2024-04-10T14:22:36.376Z,19.29
2024-04-10T14:27:39.952Z,19.04
2024-04-10T14:32:43.836Z,18.87
2024-04-10T14:37:47.281Z,18.70
2024-04-10T14:42:50.593Z,18.61
2024-04-10T14:47:53.689Z,18.59
2024-04-10T14:52:56.802Z,18.58
2024-04-10T14:58:01.340Z,18.52
2024-04-10T15:03:05.230Z,18.39
2024-04-10T15:08:08.683Z,18.24
2024-04-10T15:13:12.107Z,18.09
2024-04-10T15:18:15.313Z,17.89
2024-04-10T15:23:18.518Z,17.74
2024-04-10T15:28:22.791Z,17.68
2024-04-10T15:33:27.679Z,17.61
2024-04-10T15:38:31.978Z,17.55
2024-04-10T15:43:36.445Z,17.44
2024-04-10T15:48:39.602Z,17.33
2024-04-10T15:53:43.535Z,17.19
2024-04-10T15:58:47.329Z,17.01
2024-04-10T16:03:50.982Z,16.81
2024-04-10T16:08:57.934Z,16.67
2024-04-10T16:14:03.709Z,16.53
2024-04-10T16:19:07.416Z,16.40
2024-04-10T16:24:11.685Z,16.26
2024-04-10T16:29:15.382Z,16.14
2024-04-10T16:34:21.053Z,16.04
2024-04-10T16:39:27.328Z,15.87
2024-04-10T16:44:31.186Z,15.64
2024-04-10T16:49:35.059Z,15.37
2024-04-10T16:54:38.776Z,15.16
2024-04-10T16:59:49.281Z,15.00
2024-04-10T17:04:53.066Z,14.82
2024-04-10T17:09:57.209Z,14.69
2024-04-10T17:15:00.960Z,14.56
2024-04-10T17:20:23.515Z,14.43
2024-04-10T17:25:27.724Z,14.33
2024-04-10T17:30:30.842Z,14.20
2024-04-10T17:35:34.371Z,14.05
2024-04-10T17:40:38.511Z,13.88
2024-04-10T17:45:43.952Z,13.69
2024-04-10T17:50:52.330Z,13.49
2024-04-10T17:55:55.787Z,13.32
2024-04-10T18:01:04.974Z,13.21
2024-04-10T18:06:12.969Z,13.14
2024-04-10T18:11:16.666Z,13.10
2024-04-10T18:16:23.190Z,13.05
2024-04-10T18:21:27.122Z,12.96
2024-04-10T18:26:30.714Z,12.83
2024-04-10T18:31:34.261Z,12.67
2024-04-10T18:36:37.685Z,12.53
2024-04-10T18:41:41.248Z,12.41
2024-04-10T18:46:45.248Z,12.30
2024-04-10T18:51:50.238Z,12.20
2024-04-10T18:56:54.133Z,12.07
2024-04-10T19:01:58.472Z,11.92
2024-04-10T19:07:02.304Z,11.76
2024-04-10T19:12:07.961Z,11.57
2024-04-10T19:17:11.464Z,11.39
2024-04-10T19:22:16.982Z,11.23
2024-04-10T19:27:20.874Z,11.07
2024-04-10T19:32:24.331Z,10.93
2024-04-10T19:37:27.806Z,10.79
2024-04-10T19:42:31.327Z,10.66
2024-04-10T19:47:36.627Z,10.55
2024-04-10T19:52:43.199Z,10.43
2024-04-10T19:57:49.890Z,10.32
2024-04-10T20:02:53.267Z,10.22
2024-04-10T20:07:56.688Z,10.12
2024-04-10T20:13:00.835Z,10.04
2024-04-10T20:18:11.893Z,9.96
2024-04-10T20:23:16.094Z,9.86
2024-04-10T20:28:20.193Z,9.75
2024-04-10T20:33:25.431Z,9.64
2024-04-10T20:38:35.065Z,9.54
2024-04-10T20:43:41.992Z,9.41
2024-04-10T20:48:51.302Z,9.29
2024-04-10T20:53:54.877Z,9.17
2024-04-10T20:58:58.456Z,9.05
2024-04-10T21:04:01.935Z,8.94
2024-04-10T21:09:23.954Z,8.81
2024-04-10T21:14:46.347Z,8.66
2024-04-10T21:20:08.939Z,8.48
2024-04-10T21:25:31.712Z,8.29
2024-04-10T21:30:57.555Z,8.12
2024-04-10T21:36:19.909Z,7.99
2024-04-10T21:41:42.283Z,7.87
2024-04-10T21:47:04.211Z,7.76
2024-04-10T21:52:26.410Z,7.67
2024-04-10T21:57:48.336Z,7.56
2024-04-10T22:03:10.262Z,7.45
2024-04-10T22:08:32.224Z,7.36
2024-04-10T22:13:35.214Z,7.27
2024-04-10T22:18:57.669Z,7.20
2024-04-10T22:24:03.860Z,7.13
2024-04-10T22:29:07.060Z,7.07
2024-04-10T22:34:10.111Z,7.02
2024-04-10T22:39:13.226Z,7.00
2024-04-10T22:44:18.048Z,6.98
2024-04-10T22:49:21.944Z,6.96
2024-04-10T22:54:24.936Z,6.93
2024-04-10T22:59:28.373Z,6.93
2024-04-10T23:04:31.651Z,6.94
2024-04-10T23:09:34.907Z,6.96
2024-04-10T23:14:38.118Z,7.00
2024-04-10T23:19:41.356Z,7.03
2024-04-10T23:24:45.623Z,7.05
2024-04-10T23:29:53.309Z,7.07
2024-04-10T23:34:56.453Z,7.09
2024-04-10T23:39:59.659Z,7.11
2024-04-10T23:45:03.004Z,7.14
2024-04-10T23:50:08.644Z,7.17
2024-04-10T23:55:11.740Z,7.19
